sensor_id;sensor_type;location;lat;lon;timestamp;pressure;altitude;pressure_sealevel;temperature;humidity
62946;BME280;52164;52.212;-1.010;2023-02-21T00:00:06;101158.42;;;8.79;75.23
62946;BME280;52164;52.212;-1.010;2023-02-21T00:02:52;101150.73;;;8.77;75.19
62946;BME280;52164;52.212;-1.010;2023-02-21T00:05:37;101146.02;;;8.73;75.61
62946;BME280;52164;52.212;-1.010;2023-02-21T00:08:22;101146.70;;;8.71;75.49
62946;BME280;52164;52.212;-1.010;2023-02-21T00:11:07;101142.95;;;8.70;75.62
62946;BME280;52164;52.212;-1.010;2023-02-21T00:13:52;101142.95;;;8.70;75.70
62946;BME280;52164;52.212;-1.010;2023-02-21T00:16:37;101143.13;;;8.70;75.88
62946;BME280;52164;52.212;-1.010;2023-02-21T00:19:23;101144.55;;;8.70;76.32
62946;BME280;52164;52.212;-1.010;2023-02-21T00:22:08;101142.76;;;8.70;76.20
62946;BME280;52164;52.212;-1.010;2023-02-21T00:24:53;101139.04;;;8.71;76.18
62946;BME280;52164;52.212;-1.010;2023-02-21T00:27:38;101141.74;;;8.72;75.96
62946;BME280;52164;52.212;-1.010;2023-02-21T00:30:23;101135.16;;;8.73;76.09
62946;BME280;52164;52.212;-1.010;2023-02-21T00:33:11;101131.27;;;8.73;76.15
62946;BME280;52164;52.212;-1.010;2023-02-21T00:35:56;101135.36;;;8.73;76.00
62946;BME280;52164;52.212;-1.010;2023-02-21T00:38:41;101134.10;;;8.73;75.88
62946;BME280;52164;52.212;-1.010;2023-02-21T00:41:26;101132.09;;;8.70;75.93
62946;BME280;52164;52.212;-1.010;2023-02-21T00:44:13;101131.56;;;8.70;76.01
62946;BME280;52164;52.212;-1.010;2023-02-21T00:46:59;101129.61;;;8.71;76.03
62946;BME280;52164;52.212;-1.010;2023-02-21T00:49:44;101131.02;;;8.70;75.98
62946;BME280;52164;52.212;-1.010;2023-02-21T00:52:29;101131.36;;;8.69;75.78
62946;BME280;52164;52.212;-1.010;2023-02-21T00:55:14;101125.26;;;8.66;75.96
62946;BME280;52164;52.212;-1.010;2023-02-21T00:57:59;101125.05;;;8.64;75.98
62946;BME280;52164;52.212;-1.010;2023-02-21T01:00:45;101121.32;;;8.65;76.00
62946;BME280;52164;52.212;-1.010;2023-02-21T01:03:30;101121.33;;;8.66;75.68
62946;BME280;52164;52.212;-1.010;2023-02-21T01:06:15;101116.16;;;8.64;76.06
62946;BME280;52164;52.212;-1.010;2023-02-21T01:09:00;101112.23;;;8.64;76.16
62946;BME280;52164;52.212;-1.010;2023-02-21T01:11:45;101105.48;;;8.64;76.02
62946;BME280;52164;52.212;-1.010;2023-02-21T01:14:30;101099.80;;;8.66;76.10
62946;BME280;52164;52.212;-1.010;2023-02-21T01:17:16;101095.38;;;8.67;76.25
62946;BME280;52164;52.212;-1.010;2023-02-21T01:20:01;101095.92;;;8.67;75.82
62946;BME280;52164;52.212;-1.010;2023-02-21T01:22:46;101083.77;;;8.62;76.05
62946;BME280;52164;52.212;-1.010;2023-02-21T01:25:31;101086.91;;;8.60;75.77
62946;BME280;52164;52.212;-1.010;2023-02-21T01:28:16;101081.66;;;8.56;75.85
62946;BME280;52164;52.212;-1.010;2023-02-21T01:31:02;101076.80;;;8.52;75.71
62946;BME280;52164;52.212;-1.010;2023-02-21T01:33:50;101070.86;;;8.48;75.92
62946;BME280;52164;52.212;-1.010;2023-02-21T01:36:39;101075.59;;;8.44;76.04
62946;BME280;52164;52.212;-1.010;2023-02-21T01:39:24;101067.86;;;8.41;76.28
62946;BME280;52164;52.212;-1.010;2023-02-21T01:42:09;101074.44;;;8.41;76.25
62946;BME280;52164;52.212;-1.010;2023-02-21T01:46:00;101073.20;;;8.41;76.23
62946;BME280;52164;52.212;-1.010;2023-02-21T01:47:59;101069.48;;;8.42;76.64
62946;BME280;52164;52.212;-1.010;2023-02-21T01:50:45;101067.55;;;8.43;76.71
62946;BME280;52164;52.212;-1.010;2023-02-21T01:53:30;101067.75;;;8.44;76.41
62946;BME280;52164;52.212;-1.010;2023-02-21T01:56:15;101071.16;;;8.45;76.38
62946;BME280;52164;52.212;-1.010;2023-02-21T01:59:01;101067.19;;;8.43;76.36
62946;BME280;52164;52.212;-1.010;2023-02-21T02:01:50;101072.14;;;8.42;76.78
62946;BME280;52164;52.212;-1.010;2023-02-21T02:04:37;101071.23;;;8.40;76.79
62946;BME280;52164;52.212;-1.010;2023-02-21T02:07:22;101071.98;;;8.43;76.82
62946;BME280;52164;52.212;-1.010;2023-02-21T02:10:08;101071.73;;;8.46;76.52
62946;BME280;52164;52.212;-1.010;2023-02-21T02:13:07;101070.66;;;8.46;76.74
62946;BME280;52164;52.212;-1.010;2023-02-21T02:20:33;101061.64;;;8.50;76.81
62946;BME280;52164;52.212;-1.010;2023-02-21T02:23:25;101060.58;;;8.50;76.99
62946;BME280;52164;52.212;-1.010;2023-02-21T02:28:07;101060.02;;;8.48;76.68
62946;BME280;52164;52.212;-1.010;2023-02-21T02:31:09;101058.42;;;8.41;76.50
62946;BME280;52164;52.212;-1.010;2023-02-21T02:33:45;101058.16;;;8.35;76.57
62946;BME280;52164;52.212;-1.010;2023-02-21T02:36:33;101058.79;;;8.31;76.86
62946;BME280;52164;52.212;-1.010;2023-02-21T02:39:04;101051.98;;;8.27;77.00
62946;BME280;52164;52.212;-1.010;2023-02-21T02:41:37;101054.27;;;8.26;77.12
62946;BME280;52164;52.212;-1.010;2023-02-21T02:46:33;101056.30;;;8.21;77.19
62946;BME280;52164;52.212;-1.010;2023-02-21T02:49:02;101051.08;;;8.18;77.65
62946;BME280;52164;52.212;-1.010;2023-02-21T02:51:31;101046.02;;;8.14;77.51
62946;BME280;52164;52.212;-1.010;2023-02-21T02:53:56;101044.06;;;8.13;77.65
62946;BME280;52164;52.212;-1.010;2023-02-21T02:56:22;101039.27;;;8.13;77.50
62946;BME280;52164;52.212;-1.010;2023-02-21T02:58:56;101031.07;;;8.12;77.74
62946;BME280;52164;52.212;-1.010;2023-02-21T03:04:13;101032.48;;;8.11;77.84
62946;BME280;52164;52.212;-1.010;2023-02-21T03:07:01;101029.46;;;8.12;77.97
62946;BME280;52164;52.212;-1.010;2023-02-21T03:09:38;101028.23;;;8.14;78.05
62946;BME280;52164;52.212;-1.010;2023-02-21T03:12:09;101023.13;;;8.16;78.05
62946;BME280;52164;52.212;-1.010;2023-02-21T03:14:42;101015.53;;;8.18;78.01
62946;BME280;52164;52.212;-1.010;2023-02-21T03:17:11;101012.23;;;8.22;78.26
62946;BME280;52164;52.212;-1.010;2023-02-21T03:19:38;101015.28;;;8.24;77.83
62946;BME280;52164;52.212;-1.010;2023-02-21T03:22:06;101013.15;;;8.24;77.72
62946;BME280;52164;52.212;-1.010;2023-02-21T03:24:33;101009.70;;;8.20;77.68
62946;BME280;52164;52.212;-1.010;2023-02-21T03:27:00;101008.38;;;8.16;77.91
62946;BME280;52164;52.212;-1.010;2023-02-21T03:29:26;101011.89;;;8.14;78.01
62946;BME280;52164;52.212;-1.010;2023-02-21T03:31:57;101011.69;;;8.12;77.83
62946;BME280;52164;52.212;-1.010;2023-02-21T03:34:34;101014.84;;;8.08;77.85
62946;BME280;52164;52.212;-1.010;2023-02-21T03:37:03;101004.83;;;8.06;77.98
62946;BME280;52164;52.212;-1.010;2023-02-21T03:39:28;101002.63;;;8.03;77.97
62946;BME280;52164;52.212;-1.010;2023-02-21T03:41:54;101000.81;;;8.01;77.80
62946;BME280;52164;52.212;-1.010;2023-02-21T03:44:19;101000.05;;;7.98;78.01
62946;BME280;52164;52.212;-1.010;2023-02-21T03:46:45;100999.51;;;7.97;77.93
62946;BME280;52164;52.212;-1.010;2023-02-21T03:49:10;100996.66;;;7.97;78.15
62946;BME280;52164;52.212;-1.010;2023-02-21T03:51:36;100994.34;;;7.97;78.20
62946;BME280;52164;52.212;-1.010;2023-02-21T03:54:01;100992.20;;;7.96;78.19
62946;BME280;52164;52.212;-1.010;2023-02-21T03:56:26;100990.24;;;7.96;78.23
62946;BME280;52164;52.212;-1.010;2023-02-21T03:58:51;100987.73;;;7.94;78.30
62946;BME280;52164;52.212;-1.010;2023-02-21T04:01:17;100988.25;;;7.94;78.18
62946;BME280;52164;52.212;-1.010;2023-02-21T04:03:42;100979.86;;;7.92;78.62
62946;BME280;52164;52.212;-1.010;2023-02-21T04:06:07;100976.71;;;7.94;78.49
62946;BME280;52164;52.212;-1.010;2023-02-21T04:08:32;100978.88;;;7.97;78.13
62946;BME280;52164;52.212;-1.010;2023-02-21T04:10:58;100973.91;;;7.97;78.48
62946;BME280;52164;52.212;-1.010;2023-02-21T04:13:23;100967.31;;;7.96;78.35
62946;BME280;52164;52.212;-1.010;2023-02-21T04:15:49;100973.17;;;7.96;78.23
62946;BME280;52164;52.212;-1.010;2023-02-21T04:18:14;100971.20;;;7.95;78.35
62946;BME280;52164;52.212;-1.010;2023-02-21T04:20:39;100969.40;;;7.93;78.17
62946;BME280;52164;52.212;-1.010;2023-02-21T04:23:05;100974.02;;;7.93;78.53
62946;BME280;52164;52.212;-1.010;2023-02-21T04:25:30;100974.39;;;7.94;78.76
62946;BME280;52164;52.212;-1.010;2023-02-21T04:27:55;100972.98;;;7.95;78.63
62946;BME280;52164;52.212;-1.010;2023-02-21T04:30:20;100972.13;;;7.97;78.86
62946;BME280;52164;52.212;-1.010;2023-02-21T04:32:46;100974.85;;;8.00;78.89
62946;BME280;52164;52.212;-1.010;2023-02-21T04:35:11;100975.08;;;8.03;78.87
62946;BME280;52164;52.212;-1.010;2023-02-21T04:37:36;100977.27;;;8.06;78.99
62946;BME280;52164;52.212;-1.010;2023-02-21T04:40:02;100978.58;;;8.10;78.81
62946;BME280;52164;52.212;-1.010;2023-02-21T04:42:27;100981.83;;;8.13;78.71
62946;BME280;52164;52.212;-1.010;2023-02-21T04:44:53;100983.84;;;8.16;78.71
62946;BME280;52164;52.212;-1.010;2023-02-21T04:47:18;100977.80;;;8.16;78.67
62946;BME280;52164;52.212;-1.010;2023-02-21T04:49:43;100981.18;;;8.16;78.27
62946;BME280;52164;52.212;-1.010;2023-02-21T04:52:15;100979.52;;;8.13;78.18
62946;BME280;52164;52.212;-1.010;2023-02-21T04:54:40;100979.66;;;8.11;78.25
62946;BME280;52164;52.212;-1.010;2023-02-21T04:57:06;100977.11;;;8.07;78.04
62946;BME280;52164;52.212;-1.010;2023-02-21T04:59:31;100977.89;;;8.01;77.88
62946;BME280;52164;52.212;-1.010;2023-02-21T05:01:56;100974.05;;;7.95;77.95
62946;BME280;52164;52.212;-1.010;2023-02-21T05:04:21;100972.94;;;7.92;78.08
62946;BME280;52164;52.212;-1.010;2023-02-21T05:06:47;100969.52;;;7.90;78.41
62946;BME280;52164;52.212;-1.010;2023-02-21T05:09:12;100971.08;;;7.88;78.78
62946;BME280;52164;52.212;-1.010;2023-02-21T05:11:37;100973.39;;;7.88;78.72
62946;BME280;52164;52.212;-1.010;2023-02-21T05:14:02;100976.58;;;7.87;78.48
62946;BME280;52164;52.212;-1.010;2023-02-21T05:16:28;100973.71;;;7.86;78.51
62946;BME280;52164;52.212;-1.010;2023-02-21T05:18:53;100977.23;;;7.84;78.84
62946;BME280;52164;52.212;-1.010;2023-02-21T05:21:19;100977.92;;;7.83;78.74
62946;BME280;52164;52.212;-1.010;2023-02-21T05:23:44;100981.86;;;7.85;79.08
62946;BME280;52164;52.212;-1.010;2023-02-21T05:26:20;100984.73;;;7.87;79.12
62946;BME280;52164;52.212;-1.010;2023-02-21T05:28:45;100981.95;;;7.90;78.83
62946;BME280;52164;52.212;-1.010;2023-02-21T05:31:10;100977.19;;;7.91;78.98
62946;BME280;52164;52.212;-1.010;2023-02-21T05:33:36;100973.16;;;7.95;79.29
62946;BME280;52164;52.212;-1.010;2023-02-21T05:36:01;100970.02;;;7.98;78.89
62946;BME280;52164;52.212;-1.010;2023-02-21T05:38:27;100973.08;;;8.00;79.06
62946;BME280;52164;52.212;-1.010;2023-02-21T05:40:52;100974.88;;;8.02;78.87
62946;BME280;52164;52.212;-1.010;2023-02-21T05:43:17;100977.20;;;8.03;78.77
62946;BME280;52164;52.212;-1.010;2023-02-21T05:45:43;100974.54;;;8.03;78.78
62946;BME280;52164;52.212;-1.010;2023-02-21T05:48:09;100970.30;;;8.04;78.87
62946;BME280;52164;52.212;-1.010;2023-02-21T05:50:34;100972.80;;;8.04;78.42
62946;BME280;52164;52.212;-1.010;2023-02-21T05:53:00;100969.00;;;8.02;78.68
62946;BME280;52164;52.212;-1.010;2023-02-21T05:55:25;100968.63;;;8.00;78.61
62946;BME280;52164;52.212;-1.010;2023-02-21T05:57:51;100968.25;;;7.99;78.81
62946;BME280;52164;52.212;-1.010;2023-02-21T06:00:17;100967.02;;;7.98;78.68
62946;BME280;52164;52.212;-1.010;2023-02-21T06:02:43;100966.11;;;7.98;78.65
62946;BME280;52164;52.212;-1.010;2023-02-21T06:05:08;100968.22;;;7.97;78.91
62946;BME280;52164;52.212;-1.010;2023-02-21T06:07:34;100966.24;;;7.96;78.78
62946;BME280;52164;52.212;-1.010;2023-02-21T06:10:00;100965.84;;;7.93;78.23
62946;BME280;52164;52.212;-1.010;2023-02-21T06:12:25;100967.75;;;7.90;78.74
62946;BME280;52164;52.212;-1.010;2023-02-21T06:14:50;100968.58;;;7.88;78.25
62946;BME280;52164;52.212;-1.010;2023-02-21T06:17:15;100963.02;;;7.84;78.49
62946;BME280;52164;52.212;-1.010;2023-02-21T06:19:41;100954.83;;;7.84;78.54
62946;BME280;52164;52.212;-1.010;2023-02-21T06:22:06;100954.30;;;7.84;78.26
62946;BME280;52164;52.212;-1.010;2023-02-21T06:24:31;100954.48;;;7.83;78.46
62946;BME280;52164;52.212;-1.010;2023-02-21T06:26:56;100952.16;;;7.83;78.66
62946;BME280;52164;52.212;-1.010;2023-02-21T06:29:22;100955.56;;;7.85;78.29
62946;BME280;52164;52.212;-1.010;2023-02-21T06:31:47;100951.12;;;7.85;78.45
62946;BME280;52164;52.212;-1.010;2023-02-21T06:34:12;100950.81;;;7.88;78.29
62946;BME280;52164;52.212;-1.010;2023-02-21T06:36:38;100948.71;;;7.89;78.58
62946;BME280;52164;52.212;-1.010;2023-02-21T06:39:05;100946.97;;;7.91;78.65
62946;BME280;52164;52.212;-1.010;2023-02-21T06:41:32;100951.84;;;7.94;78.72
62946;BME280;52164;52.212;-1.010;2023-02-21T06:43:57;100950.47;;;7.99;78.61
62946;BME280;52164;52.212;-1.010;2023-02-21T06:46:24;100948.76;;;8.02;78.61
62946;BME280;52164;52.212;-1.010;2023-02-21T06:48:51;100947.04;;;8.06;78.79
62946;BME280;52164;52.212;-1.010;2023-02-21T06:51:16;100949.97;;;8.11;78.86
62946;BME280;52164;52.212;-1.010;2023-02-21T06:53:43;100945.75;;;8.14;78.69
62946;BME280;52164;52.212;-1.010;2023-02-21T06:56:08;100947.02;;;8.15;78.45
62946;BME280;52164;52.212;-1.010;2023-02-21T06:58:34;100944.20;;;8.17;78.63
62946;BME280;52164;52.212;-1.010;2023-02-21T07:01:00;100939.08;;;8.18;78.62
62946;BME280;52164;52.212;-1.010;2023-02-21T07:03:25;100936.95;;;8.19;78.24
62946;BME280;52164;52.212;-1.010;2023-02-21T07:05:51;100933.02;;;8.17;78.22
62946;BME280;52164;52.212;-1.010;2023-02-21T07:08:16;100934.92;;;8.15;77.91
62946;BME280;52164;52.212;-1.010;2023-02-21T07:10:41;100930.46;;;8.13;78.14
62946;BME280;52164;52.212;-1.010;2023-02-21T07:13:06;100937.89;;;8.11;78.23
62946;BME280;52164;52.212;-1.010;2023-02-21T07:15:32;100938.17;;;8.06;77.35
62946;BME280;52164;52.212;-1.010;2023-02-21T07:17:57;100937.91;;;8.02;77.56
62946;BME280;52164;52.212;-1.010;2023-02-21T07:20:22;100938.22;;;8.00;77.52
62946;BME280;52164;52.212;-1.010;2023-02-21T07:22:48;100935.36;;;7.98;77.51
62946;BME280;52164;52.212;-1.010;2023-02-21T07:25:14;100935.14;;;7.95;77.28
62946;BME280;52164;52.212;-1.010;2023-02-21T07:27:40;100930.48;;;7.94;77.68
62946;BME280;52164;52.212;-1.010;2023-02-21T07:30:05;100927.79;;;7.92;77.30
62946;BME280;52164;52.212;-1.010;2023-02-21T07:32:31;100925.98;;;7.90;77.26
62946;BME280;52164;52.212;-1.010;2023-02-21T07:34:57;100929.73;;;7.90;77.66
62946;BME280;52164;52.212;-1.010;2023-02-21T07:37:22;100927.61;;;7.91;77.81
62946;BME280;52164;52.212;-1.010;2023-02-21T07:39:47;100924.61;;;7.94;77.85
62946;BME280;52164;52.212;-1.010;2023-02-21T07:42:12;100920.23;;;7.97;77.85
62946;BME280;52164;52.212;-1.010;2023-02-21T07:44:38;100920.84;;;8.01;78.06
62946;BME280;52164;52.212;-1.010;2023-02-21T07:47:03;100925.34;;;8.05;77.66
62946;BME280;52164;52.212;-1.010;2023-02-21T07:49:30;100932.52;;;8.09;77.83
62946;BME280;52164;52.212;-1.010;2023-02-21T07:51:55;100933.13;;;8.14;77.78
62946;BME280;52164;52.212;-1.010;2023-02-21T07:54:20;100929.45;;;8.17;77.83
62946;BME280;52164;52.212;-1.010;2023-02-21T07:56:47;100930.60;;;8.22;77.90
62946;BME280;52164;52.212;-1.010;2023-02-21T07:59:13;100933.71;;;8.27;77.79
62946;BME280;52164;52.212;-1.010;2023-02-21T08:01:38;100937.92;;;8.35;77.75
62946;BME280;52164;52.212;-1.010;2023-02-21T08:04:04;100937.30;;;8.41;77.58
62946;BME280;52164;52.212;-1.010;2023-02-21T08:06:29;100942.92;;;8.46;77.45
62946;BME280;52164;52.212;-1.010;2023-02-21T08:08:54;100936.77;;;8.50;77.01
62946;BME280;52164;52.212;-1.010;2023-02-21T08:11:20;100938.05;;;8.53;77.05
62946;BME280;52164;52.212;-1.010;2023-02-21T08:13:45;100936.50;;;8.56;76.70
62946;BME280;52164;52.212;-1.010;2023-02-21T08:16:11;100937.93;;;8.56;76.67
62946;BME280;52164;52.212;-1.010;2023-02-21T08:18:36;100941.11;;;8.55;76.61
62946;BME280;52164;52.212;-1.010;2023-02-21T08:21:01;100944.67;;;8.55;76.54
62946;BME280;52164;52.212;-1.010;2023-02-21T08:23:28;100947.54;;;8.56;76.26
62946;BME280;52164;52.212;-1.010;2023-02-21T08:25:54;100946.98;;;8.55;76.17
62946;BME280;52164;52.212;-1.010;2023-02-21T08:28:19;100948.23;;;8.56;76.35
62946;BME280;52164;52.212;-1.010;2023-02-21T08:30:44;100949.33;;;8.58;76.25
62946;BME280;52164;52.212;-1.010;2023-02-21T08:33:10;100949.14;;;8.56;75.73
62946;BME280;52164;52.212;-1.010;2023-02-21T08:35:35;100948.77;;;8.55;75.64
62946;BME280;52164;52.212;-1.010;2023-02-21T08:38:00;100951.05;;;8.54;75.40
62946;BME280;52164;52.212;-1.010;2023-02-21T08:40:30;100950.15;;;8.53;75.46
62946;BME280;52164;52.212;-1.010;2023-02-21T08:42:56;100945.84;;;8.51;75.69
62946;BME280;52164;52.212;-1.010;2023-02-21T08:45:22;100946.56;;;8.50;75.76
62946;BME280;52164;52.212;-1.010;2023-02-21T08:47:48;100949.06;;;8.51;75.66
62946;BME280;52164;52.212;-1.010;2023-02-21T08:50:15;100945.89;;;8.53;75.71
62946;BME280;52164;52.212;-1.010;2023-02-21T08:52:41;100948.94;;;8.55;75.63
62946;BME280;52164;52.212;-1.010;2023-02-21T08:55:06;100949.48;;;8.56;75.70
62946;BME280;52164;52.212;-1.010;2023-02-21T08:57:32;100956.66;;;8.60;75.55
62946;BME280;52164;52.212;-1.010;2023-02-21T08:59:58;100958.66;;;8.61;75.51
62946;BME280;52164;52.212;-1.010;2023-02-21T09:02:24;100955.48;;;8.64;75.55
62946;BME280;52164;52.212;-1.010;2023-02-21T09:04:49;100956.92;;;8.66;75.61
62946;BME280;52164;52.212;-1.010;2023-02-21T09:07:15;100955.34;;;8.67;75.60
62946;BME280;52164;52.212;-1.010;2023-02-21T09:09:41;100954.27;;;8.67;75.49
62946;BME280;52164;52.212;-1.010;2023-02-21T09:12:06;100951.98;;;8.69;75.35
62946;BME280;52164;52.212;-1.010;2023-02-21T09:14:34;100956.11;;;8.72;75.26
62946;BME280;52164;52.212;-1.010;2023-02-21T09:16:59;100956.89;;;8.75;75.33
62946;BME280;52164;52.212;-1.010;2023-02-21T09:19:25;100948.06;;;8.80;75.28
62946;BME280;52164;52.212;-1.010;2023-02-21T09:21:50;100939.74;;;8.84;74.97
62946;BME280;52164;52.212;-1.010;2023-02-21T09:24:20;100945.65;;;8.86;75.13
62946;BME280;52164;52.212;-1.010;2023-02-21T09:26:49;100940.90;;;8.90;75.07
62946;BME280;52164;52.212;-1.010;2023-02-21T09:29:14;100935.76;;;8.92;74.93
62946;BME280;52164;52.212;-1.010;2023-02-21T09:31:40;100934.20;;;8.95;75.01
62946;BME280;52164;52.212;-1.010;2023-02-21T09:34:05;100927.33;;;8.99;74.61
62946;BME280;52164;52.212;-1.010;2023-02-21T09:36:34;100925.78;;;9.04;74.28
62946;BME280;52164;52.212;-1.010;2023-02-21T09:38:59;100923.67;;;9.07;74.26
62946;BME280;52164;52.212;-1.010;2023-02-21T09:41:28;100926.71;;;9.08;74.13
62946;BME280;52164;52.212;-1.010;2023-02-21T09:43:53;100924.77;;;9.10;73.95
62946;BME280;52164;52.212;-1.010;2023-02-21T09:46:24;100925.33;;;9.11;73.85
62946;BME280;52164;52.212;-1.010;2023-02-21T09:48:52;100921.61;;;9.13;73.95
62946;BME280;52164;52.212;-1.010;2023-02-21T09:51:18;100918.41;;;9.14;73.66
62946;BME280;52164;52.212;-1.010;2023-02-21T09:53:44;100918.23;;;9.13;73.76
62946;BME280;52164;52.212;-1.010;2023-02-21T09:56:13;100926.72;;;9.09;73.64
62946;BME280;52164;52.212;-1.010;2023-02-21T09:58:43;100926.15;;;9.06;73.79
62946;BME280;52164;52.212;-1.010;2023-02-21T10:01:17;100925.04;;;9.02;73.76
62946;BME280;52164;52.212;-1.010;2023-02-21T10:03:47;100929.81;;;9.00;73.51
62946;BME280;52164;52.212;-1.010;2023-02-21T10:06:50;100921.77;;;8.98;73.51
62946;BME280;52164;52.212;-1.010;2023-02-21T10:09:07;100918.23;;;8.98;73.56
62946;BME280;52164;52.212;-1.010;2023-02-21T10:11:45;100919.83;;;8.98;73.75
62946;BME280;52164;52.212;-1.010;2023-02-21T10:14:22;100915.61;;;9.03;73.97
62946;BME280;52164;52.212;-1.010;2023-02-21T10:16:53;100912.31;;;9.09;73.83
62946;BME280;52164;52.212;-1.010;2023-02-21T10:19:22;100908.85;;;9.18;73.95
62946;BME280;52164;52.212;-1.010;2023-02-21T10:21:50;100911.66;;;9.28;73.55
62946;BME280;52164;52.212;-1.010;2023-02-21T10:24:19;100910.49;;;9.36;73.57
62946;BME280;52164;52.212;-1.010;2023-02-21T10:26:47;100906.33;;;9.46;73.50
62946;BME280;52164;52.212;-1.010;2023-02-21T10:29:18;100908.44;;;9.60;73.24
62946;BME280;52164;52.212;-1.010;2023-02-21T10:31:44;100907.13;;;9.73;72.76
62946;BME280;52164;52.212;-1.010;2023-02-21T10:34:27;100909.05;;;9.88;72.61
62946;BME280;52164;52.212;-1.010;2023-02-21T10:36:54;100907.75;;;10.02;72.28
62946;BME280;52164;52.212;-1.010;2023-02-21T10:39:23;100905.89;;;10.15;72.06
62946;BME280;52164;52.212;-1.010;2023-02-21T10:41:51;100907.94;;;10.25;71.62
62946;BME280;52164;52.212;-1.010;2023-02-21T10:44:19;100899.58;;;10.29;71.33
62946;BME280;52164;52.212;-1.010;2023-02-21T10:46:48;100900.74;;;10.35;71.21
62946;BME280;52164;52.212;-1.010;2023-02-21T10:51:41;100899.49;;;10.37;70.83
62946;BME280;52164;52.212;-1.010;2023-02-21T10:54:22;100901.42;;;10.33;70.83
62946;BME280;52164;52.212;-1.010;2023-02-21T10:56:48;100903.66;;;10.24;70.85
62946;BME280;52164;52.212;-1.010;2023-02-21T10:59:45;100903.45;;;10.21;71.12
62946;BME280;52164;52.212;-1.010;2023-02-21T11:02:00;100907.00;;;10.18;70.86
62946;BME280;52164;52.212;-1.010;2023-02-21T11:04:27;100903.77;;;10.14;70.95
62946;BME280;52164;52.212;-1.010;2023-02-21T11:06:55;100903.02;;;10.11;70.89
62946;BME280;52164;52.212;-1.010;2023-02-21T11:11:48;100900.45;;;10.03;71.02
62946;BME280;52164;52.212;-1.010;2023-02-21T11:14:23;100898.48;;;10.00;71.26
62946;BME280;52164;52.212;-1.010;2023-02-21T11:17:05;100892.41;;;10.01;71.02
62946;BME280;52164;52.212;-1.010;2023-02-21T11:19:48;100892.94;;;9.99;71.21
62946;BME280;52164;52.212;-1.010;2023-02-21T11:22:15;100892.91;;;9.97;71.15
62946;BME280;52164;52.212;-1.010;2023-02-21T11:24:59;100888.80;;;9.96;71.58
62946;BME280;52164;52.212;-1.010;2023-02-21T11:27:25;100884.38;;;9.98;71.66
62946;BME280;52164;52.212;-1.010;2023-02-21T11:29:51;100882.45;;;10.02;71.83
62946;BME280;52164;52.212;-1.010;2023-02-21T11:32:22;100879.26;;;10.08;71.73
62946;BME280;52164;52.212;-1.010;2023-02-21T11:34:48;100874.66;;;10.12;71.77
62946;BME280;52164;52.212;-1.010;2023-02-21T11:37:14;100868.64;;;10.16;71.78
62946;BME280;52164;52.212;-1.010;2023-02-21T11:39:40;100871.17;;;10.22;71.64
62946;BME280;52164;52.212;-1.010;2023-02-21T11:42:24;100870.27;;;10.23;71.26
62946;BME280;52164;52.212;-1.010;2023-02-21T11:47:41;100859.05;;;10.23;71.39
62946;BME280;52164;52.212;-1.010;2023-02-21T11:50:10;100857.77;;;10.17;71.51
62946;BME280;52164;52.212;-1.010;2023-02-21T11:52:38;100854.67;;;10.11;71.70
62946;BME280;52164;52.212;-1.010;2023-02-21T11:55:14;100854.52;;;10.13;72.10
62946;BME280;52164;52.212;-1.010;2023-02-21T11:57:43;100846.69;;;10.16;72.04
62946;BME280;52164;52.212;-1.010;2023-02-21T12:00:45;100839.92;;;10.16;72.03
62946;BME280;52164;52.212;-1.010;2023-02-21T12:03:06;100842.38;;;10.13;71.95
62946;BME280;52164;52.212;-1.010;2023-02-21T12:05:44;100825.59;;;10.09;71.94
62946;BME280;52164;52.212;-1.010;2023-02-21T12:10:46;100807.94;;;10.07;72.10
62946;BME280;52164;52.212;-1.010;2023-02-21T12:13:20;100808.86;;;10.12;72.09
62946;BME280;52164;52.212;-1.010;2023-02-21T12:18:09;100808.67;;;10.11;71.94
62946;BME280;52164;52.212;-1.010;2023-02-21T12:22:10;100794.89;;;10.03;72.32
62946;BME280;52164;52.212;-1.010;2023-02-21T12:23:50;100789.13;;;9.95;72.49
62946;BME280;52164;52.212;-1.010;2023-02-21T12:32:28;100793.40;;;9.93;72.66
62946;BME280;52164;52.212;-1.010;2023-02-21T12:34:25;100787.59;;;10.05;72.83
62946;BME280;52164;52.212;-1.010;2023-02-21T12:39:32;100787.49;;;10.19;72.48
62946;BME280;52164;52.212;-1.010;2023-02-21T12:44:32;100782.34;;;10.22;72.85
62946;BME280;52164;52.212;-1.010;2023-02-21T12:47:04;100784.30;;;10.22;72.66
62946;BME280;52164;52.212;-1.010;2023-02-21T12:49:43;100788.92;;;10.19;72.82
62946;BME280;52164;52.212;-1.010;2023-02-21T12:52:27;100777.69;;;10.17;72.74
62946;BME280;52164;52.212;-1.010;2023-02-21T12:54:58;100771.81;;;10.21;72.57
62946;BME280;52164;52.212;-1.010;2023-02-21T13:00:24;100767.55;;;10.26;72.40
62946;BME280;52164;52.212;-1.010;2023-02-21T13:05:32;100763.66;;;10.32;72.32
62946;BME280;52164;52.212;-1.010;2023-02-21T13:08:00;100759.79;;;10.35;72.42
62946;BME280;52164;52.212;-1.010;2023-02-21T13:10:33;100755.73;;;10.42;72.15
62946;BME280;52164;52.212;-1.010;2023-02-21T13:13:02;100752.88;;;10.43;72.09
62946;BME280;52164;52.212;-1.010;2023-02-21T13:15:29;100746.82;;;10.45;72.00
62946;BME280;52164;52.212;-1.010;2023-02-21T13:20:21;100741.12;;;10.51;71.71
62946;BME280;52164;52.212;-1.010;2023-02-21T13:23:55;100737.37;;;10.50;71.76
62946;BME280;52164;52.212;-1.010;2023-02-21T13:26:14;100733.11;;;10.52;71.75
62946;BME280;52164;52.212;-1.010;2023-02-21T13:28:40;100727.77;;;10.54;71.67
62946;BME280;52164;52.212;-1.010;2023-02-21T13:31:16;100721.18;;;10.64;71.66
62946;BME280;52164;52.212;-1.010;2023-02-21T13:33:43;100719.42;;;10.77;71.00
62946;BME280;52164;52.212;-1.010;2023-02-21T13:36:27;100717.48;;;10.82;70.81
62946;BME280;52164;52.212;-1.010;2023-02-21T13:38:55;100710.34;;;10.83;70.65
62946;BME280;52164;52.212;-1.010;2023-02-21T13:41:23;100710.17;;;10.87;70.64
62946;BME280;52164;52.212;-1.010;2023-02-21T13:43:50;100706.60;;;10.90;70.37
62946;BME280;52164;52.212;-1.010;2023-02-21T13:46:57;100704.29;;;10.90;70.69
62946;BME280;52164;52.212;-1.010;2023-02-21T13:49:39;100701.23;;;10.92;70.30
62946;BME280;52164;52.212;-1.010;2023-02-21T13:51:50;100693.21;;;10.92;70.36